sensor_id;sensor_type;location;lat;lon;timestamp;temperature;humidity
802;DHT22;383;48.766;9.270;2023-07-09T00:02:18;23.10;68.80
802;DHT22;383;48.766;9.270;2023-07-09T00:04:45;23.10;69.30
802;DHT22;383;48.766;9.270;2023-07-09T00:07:27;23.00;69.30
802;DHT22;383;48.766;9.270;2023-07-09T00:09:54;23.00;69.70
802;DHT22;383;48.766;9.270;2023-07-09T00:12:23;22.90;69.70
802;DHT22;383;48.766;9.270;2023-07-09T00:14:50;22.90;69.90
802;DHT22;383;48.766;9.270;2023-07-09T00:17:21;22.80;70.40
802;DHT22;383;48.766;9.270;2023-07-09T00:19:48;22.80;70.50
802;DHT22;383;48.766;9.270;2023-07-09T00:22:16;22.70;70.80
802;DHT22;383;48.766;9.270;2023-07-09T00:24:44;22.70;70.90
802;DHT22;383;48.766;9.270;2023-07-09T00:27:11;22.70;71.10
802;DHT22;383;48.766;9.270;2023-07-09T00:29:39;22.70;71.20
802;DHT22;383;48.766;9.270;2023-07-09T00:32:11;22.60;71.20
802;DHT22;383;48.766;9.270;2023-07-09T00:34:40;22.70;71.20
802;DHT22;383;48.766;9.270;2023-07-09T00:37:10;22.60;71.30
802;DHT22;383;48.766;9.270;2023-07-09T00:39:38;22.50;71.50
802;DHT22;383;48.766;9.270;2023-07-09T00:42:08;22.50;71.60
802;DHT22;383;48.766;9.270;2023-07-09T00:44:37;22.40;71.70
802;DHT22;383;48.766;9.270;2023-07-09T00:47:21;22.40;72.00
802;DHT22;383;48.766;9.270;2023-07-09T00:49:49;22.40;72.00
802;DHT22;383;48.766;9.270;2023-07-09T00:52:23;22.40;72.40
802;DHT22;383;48.766;9.270;2023-07-09T00:54:51;22.40;72.40
802;DHT22;383;48.766;9.270;2023-07-09T00:57:22;22.30;72.90
802;DHT22;383;48.766;9.270;2023-07-09T00:59:55;22.30;72.90
802;DHT22;383;48.766;9.270;2023-07-09T01:02:25;22.30;72.90
802;DHT22;383;48.766;9.270;2023-07-09T01:04:54;22.20;73.20
802;DHT22;383;48.766;9.270;2023-07-09T01:07:22;22.20;73.40
802;DHT22;383;48.766;9.270;2023-07-09T01:09:49;22.20;73.60
802;DHT22;383;48.766;9.270;2023-07-09T01:12:19;22.10;73.40
802;DHT22;383;48.766;9.270;2023-07-09T01:14:47;22.10;73.80
802;DHT22;383;48.766;9.270;2023-07-09T01:17:17;22.10;73.80
802;DHT22;383;48.766;9.270;2023-07-09T01:19:49;22.00;74.20
802;DHT22;383;48.766;9.270;2023-07-09T01:22:20;22.00;74.10
802;DHT22;383;48.766;9.270;2023-07-09T01:24:50;22.00;74.20
802;DHT22;383;48.766;9.270;2023-07-09T01:27:19;22.10;74.10
802;DHT22;383;48.766;9.270;2023-07-09T01:29:46;22.00;74.10
802;DHT22;383;48.766;9.270;2023-07-09T01:32:15;22.00;74.20
802;DHT22;383;48.766;9.270;2023-07-09T01:34:43;21.90;74.50
802;DHT22;383;48.766;9.270;2023-07-09T01:37:09;21.80;74.60
802;DHT22;383;48.766;9.270;2023-07-09T01:39:37;21.80;75.00
802;DHT22;383;48.766;9.270;2023-07-09T01:42:06;21.80;75.60
802;DHT22;383;48.766;9.270;2023-07-09T01:44:34;21.70;75.80
802;DHT22;383;48.766;9.270;2023-07-09T01:47:01;21.70;75.80
802;DHT22;383;48.766;9.270;2023-07-09T01:49:29;21.70;75.60
802;DHT22;383;48.766;9.270;2023-07-09T01:51:58;21.70;75.70
802;DHT22;383;48.766;9.270;2023-07-09T01:54:27;21.70;75.80
802;DHT22;383;48.766;9.270;2023-07-09T01:57:12;21.60;75.80
802;DHT22;383;48.766;9.270;2023-07-09T01:59:38;21.60;76.30
802;DHT22;383;48.766;9.270;2023-07-09T02:02:06;21.60;76.50
802;DHT22;383;48.766;9.270;2023-07-09T02:04:33;21.50;76.60
802;DHT22;383;48.766;9.270;2023-07-09T02:07:00;21.40;77.30
802;DHT22;383;48.766;9.270;2023-07-09T02:09:26;21.40;77.30
802;DHT22;383;48.766;9.270;2023-07-09T02:11:54;21.50;76.70
802;DHT22;383;48.766;9.270;2023-07-09T02:14:21;21.50;77.10
802;DHT22;383;48.766;9.270;2023-07-09T02:16:48;21.50;76.60
802;DHT22;383;48.766;9.270;2023-07-09T02:19:14;21.50;76.90
802;DHT22;383;48.766;9.270;2023-07-09T02:21:41;21.50;77.00
802;DHT22;383;48.766;9.270;2023-07-09T02:24:08;21.40;77.40
802;DHT22;383;48.766;9.270;2023-07-09T02:26:34;21.40;77.30
802;DHT22;383;48.766;9.270;2023-07-09T02:29:02;21.40;77.50
802;DHT22;383;48.766;9.270;2023-07-09T02:31:29;21.40;77.70
802;DHT22;383;48.766;9.270;2023-07-09T02:33:56;21.40;77.70
802;DHT22;383;48.766;9.270;2023-07-09T02:36:24;21.40;77.70
802;DHT22;383;48.766;9.270;2023-07-09T02:38:51;21.30;77.70
802;DHT22;383;48.766;9.270;2023-07-09T02:41:17;21.30;77.90
802;DHT22;383;48.766;9.270;2023-07-09T02:43:44;21.30;78.10
802;DHT22;383;48.766;9.270;2023-07-09T02:46:12;21.30;78.20
802;DHT22;383;48.766;9.270;2023-07-09T02:48:39;21.20;78.50
802;DHT22;383;48.766;9.270;2023-07-09T02:51:05;21.20;78.70
802;DHT22;383;48.766;9.270;2023-07-09T02:53:32;21.20;78.70
802;DHT22;383;48.766;9.270;2023-07-09T02:55:59;21.20;78.90
802;DHT22;383;48.766;9.270;2023-07-09T02:58:26;21.20;79.00
802;DHT22;383;48.766;9.270;2023-07-09T03:00:52;21.20;79.10
802;DHT22;383;48.766;9.270;2023-07-09T03:03:20;21.10;79.10
802;DHT22;383;48.766;9.270;2023-07-09T03:05:47;21.10;79.40
802;DHT22;383;48.766;9.270;2023-07-09T03:08:14;21.10;79.30
802;DHT22;383;48.766;9.270;2023-07-09T03:10:41;21.10;79.70
802;DHT22;383;48.766;9.270;2023-07-09T03:13:08;21.10;79.50
802;DHT22;383;48.766;9.270;2023-07-09T03:15:34;21.10;79.70
802;DHT22;383;48.766;9.270;2023-07-09T03:18:01;21.10;79.50
802;DHT22;383;48.766;9.270;2023-07-09T03:20:29;21.10;79.70
802;DHT22;383;48.766;9.270;2023-07-09T03:22:56;21.10;80.20
802;DHT22;383;48.766;9.270;2023-07-09T03:25:22;21.10;80.00
802;DHT22;383;48.766;9.270;2023-07-09T03:27:49;21.00;80.00
802;DHT22;383;48.766;9.270;2023-07-09T03:30:16;21.00;80.20
802;DHT22;383;48.766;9.270;2023-07-09T03:32:43;21.00;80.20
802;DHT22;383;48.766;9.270;2023-07-09T03:35:10;21.00;80.00
802;DHT22;383;48.766;9.270;2023-07-09T03:37:38;20.90;80.20
802;DHT22;383;48.766;9.270;2023-07-09T03:40:10;20.90;80.40
802;DHT22;383;48.766;9.270;2023-07-09T03:42:37;20.90;80.40
802;DHT22;383;48.766;9.270;2023-07-09T03:45:05;20.80;80.80
802;DHT22;383;48.766;9.270;2023-07-09T03:47:31;20.80;80.60
802;DHT22;383;48.766;9.270;2023-07-09T03:49:58;20.80;80.60
802;DHT22;383;48.766;9.270;2023-07-09T03:52:25;20.80;80.30
802;DHT22;383;48.766;9.270;2023-07-09T03:54:53;20.80;80.30
802;DHT22;383;48.766;9.270;2023-07-09T03:57:19;20.80;80.20
802;DHT22;383;48.766;9.270;2023-07-09T03:59:46;20.80;80.60
802;DHT22;383;48.766;9.270;2023-07-09T04:02:13;20.80;80.60
802;DHT22;383;48.766;9.270;2023-07-09T04:04:39;20.90;80.30
802;DHT22;383;48.766;9.270;2023-07-09T04:07:06;20.90;79.80
802;DHT22;383;48.766;9.270;2023-07-09T04:09:33;20.90;80.40
802;DHT22;383;48.766;9.270;2023-07-09T04:12:01;20.80;80.30
802;DHT22;383;48.766;9.270;2023-07-09T04:14:28;20.90;80.60
802;DHT22;383;48.766;9.270;2023-07-09T04:16:55;20.90;80.40
802;DHT22;383;48.766;9.270;2023-07-09T04:19:23;21.00;79.90
802;DHT22;383;48.766;9.270;2023-07-09T04:21:49;21.00;80.00
802;DHT22;383;48.766;9.270;2023-07-09T04:24:17;21.10;80.20
802;DHT22;383;48.766;9.270;2023-07-09T04:26:44;21.10;80.00
802;DHT22;383;48.766;9.270;2023-07-09T04:29:13;21.20;79.80
802;DHT22;383;48.766;9.270;2023-07-09T04:31:40;21.20;79.80
802;DHT22;383;48.766;9.270;2023-07-09T04:34:07;21.30;79.40
802;DHT22;383;48.766;9.270;2023-07-09T04:36:34;21.40;79.00
802;DHT22;383;48.766;9.270;2023-07-09T04:39:01;21.40;79.30
802;DHT22;383;48.766;9.270;2023-07-09T04:41:29;21.40;79.10
802;DHT22;383;48.766;9.270;2023-07-09T04:43:55;21.40;79.10
802;DHT22;383;48.766;9.270;2023-07-09T04:46:23;21.40;79.00
802;DHT22;383;48.766;9.270;2023-07-09T04:48:50;21.40;79.30
802;DHT22;383;48.766;9.270;2023-07-09T04:51:17;21.50;78.90
802;DHT22;383;48.766;9.270;2023-07-09T04:53:44;21.50;78.90
802;DHT22;383;48.766;9.270;2023-07-09T04:56:10;21.60;78.10
802;DHT22;383;48.766;9.270;2023-07-09T04:58:38;21.50;78.60
802;DHT22;383;48.766;9.270;2023-07-09T05:01:04;21.60;78.70
802;DHT22;383;48.766;9.270;2023-07-09T05:03:32;21.60;79.10
802;DHT22;383;48.766;9.270;2023-07-09T05:05:59;21.70;79.00
802;DHT22;383;48.766;9.270;2023-07-09T05:08:26;21.70;78.30
802;DHT22;383;48.766;9.270;2023-07-09T05:10:52;21.70;78.60
802;DHT22;383;48.766;9.270;2023-07-09T05:13:19;21.80;78.20
802;DHT22;383;48.766;9.270;2023-07-09T05:15:47;21.80;78.30
802;DHT22;383;48.766;9.270;2023-07-09T05:18:14;21.80;77.80
802;DHT22;383;48.766;9.270;2023-07-09T05:20:42;22.00;77.80
802;DHT22;383;48.766;9.270;2023-07-09T05:23:09;22.00;77.80
802;DHT22;383;48.766;9.270;2023-07-09T05:25:37;22.10;77.40
802;DHT22;383;48.766;9.270;2023-07-09T05:28:04;22.10;77.70
802;DHT22;383;48.766;9.270;2023-07-09T05:30:32;22.20;77.50
802;DHT22;383;48.766;9.270;2023-07-09T05:32:58;22.30;77.50
802;DHT22;383;48.766;9.270;2023-07-09T05:35:26;22.50;77.00
802;DHT22;383;48.766;9.270;2023-07-09T05:37:54;22.60;76.60
802;DHT22;383;48.766;9.270;2023-07-09T05:40:21;22.70;76.70
802;DHT22;383;48.766;9.270;2023-07-09T05:42:48;22.90;76.00
802;DHT22;383;48.766;9.270;2023-07-09T05:45:15;23.00;75.20
802;DHT22;383;48.766;9.270;2023-07-09T05:47:42;23.10;74.50
802;DHT22;383;48.766;9.270;2023-07-09T05:50:10;23.10;74.90
802;DHT22;383;48.766;9.270;2023-07-09T05:52:36;23.20;74.50
802;DHT22;383;48.766;9.270;2023-07-09T05:55:06;23.30;74.00
802;DHT22;383;48.766;9.270;2023-07-09T05:57:32;23.50;73.60
802;DHT22;383;48.766;9.270;2023-07-09T05:59:59;23.60;73.20
802;DHT22;383;48.766;9.270;2023-07-09T06:02:26;23.80;71.90
802;DHT22;383;48.766;9.270;2023-07-09T06:04:52;23.90;71.30
802;DHT22;383;48.766;9.270;2023-07-09T06:07:19;23.90;71.30
802;DHT22;383;48.766;9.270;2023-07-09T06:09:46;24.00;71.60
802;DHT22;383;48.766;9.270;2023-07-09T06:12:14;24.00;70.90
802;DHT22;383;48.766;9.270;2023-07-09T06:14:41;24.20;70.50
802;DHT22;383;48.766;9.270;2023-07-09T06:17:08;24.20;70.90
802;DHT22;383;48.766;9.270;2023-07-09T06:19:34;24.40;70.10
802;DHT22;383;48.766;9.270;2023-07-09T06:22:01;24.50;68.60
802;DHT22;383;48.766;9.270;2023-07-09T06:24:28;24.60;69.10
802;DHT22;383;48.766;9.270;2023-07-09T06:26:54;24.60;68.80
802;DHT22;383;48.766;9.270;2023-07-09T06:29:23;24.70;68.70
802;DHT22;383;48.766;9.270;2023-07-09T06:31:49;24.80;68.20
802;DHT22;383;48.766;9.270;2023-07-09T06:34:16;24.90;68.00
802;DHT22;383;48.766;9.270;2023-07-09T06:36:43;25.00;68.20
802;DHT22;383;48.766;9.270;2023-07-09T06:39:09;25.10;67.90
802;DHT22;383;48.766;9.270;2023-07-09T06:41:36;25.30;67.10
802;DHT22;383;48.766;9.270;2023-07-09T06:44:05;25.40;66.20
802;DHT22;383;48.766;9.270;2023-07-09T06:46:33;25.50;65.80
802;DHT22;383;48.766;9.270;2023-07-09T06:49:00;25.50;65.80
802;DHT22;383;48.766;9.270;2023-07-09T06:51:26;25.60;65.60
802;DHT22;383;48.766;9.270;2023-07-09T06:53:53;25.70;65.10
802;DHT22;383;48.766;9.270;2023-07-09T06:56:21;25.80;65.20
802;DHT22;383;48.766;9.270;2023-07-09T06:58:48;25.80;64.60
802;DHT22;383;48.766;9.270;2023-07-09T07:01:15;25.90;64.50
802;DHT22;383;48.766;9.270;2023-07-09T07:03:43;26.10;64.20
802;DHT22;383;48.766;9.270;2023-07-09T07:06:09;26.10;63.80
802;DHT22;383;48.766;9.270;2023-07-09T07:08:36;26.30;63.80
802;DHT22;383;48.766;9.270;2023-07-09T07:11:04;26.40;63.10
802;DHT22;383;48.766;9.270;2023-07-09T07:13:33;26.40;63.10
802;DHT22;383;48.766;9.270;2023-07-09T07:16:01;26.50;62.90
802;DHT22;383;48.766;9.270;2023-07-09T07:18:28;26.60;62.60
802;DHT22;383;48.766;9.270;2023-07-09T07:20:56;26.70;61.90
802;DHT22;383;48.766;9.270;2023-07-09T07:23:23;26.90;62.60
802;DHT22;383;48.766;9.270;2023-07-09T07:25:50;27.10;61.10
802;DHT22;383;48.766;9.270;2023-07-09T07:28:17;27.20;61.00
802;DHT22;383;48.766;9.270;2023-07-09T07:30:44;27.30;61.70
802;DHT22;383;48.766;9.270;2023-07-09T07:33:15;27.40;61.70
802;DHT22;383;48.766;9.270;2023-07-09T07:35:41;27.50;61.50
802;DHT22;383;48.766;9.270;2023-07-09T07:38:09;27.70;59.80
802;DHT22;383;48.766;9.270;2023-07-09T07:40:36;27.80;59.50
802;DHT22;383;48.766;9.270;2023-07-09T07:43:03;27.90;59.60
802;DHT22;383;48.766;9.270;2023-07-09T07:45:30;28.10;59.00
802;DHT22;383;48.766;9.270;2023-07-09T07:47:56;28.20;58.10
802;DHT22;383;48.766;9.270;2023-07-09T07:50:23;28.30;57.80
802;DHT22;383;48.766;9.270;2023-07-09T07:52:50;28.40;57.80
802;DHT22;383;48.766;9.270;2023-07-09T07:55:18;28.50;57.10
802;DHT22;383;48.766;9.270;2023-07-09T07:57:45;28.70;56.70
802;DHT22;383;48.766;9.270;2023-07-09T08:00:12;28.80;57.00
802;DHT22;383;48.766;9.270;2023-07-09T08:02:39;28.90;56.20
802;DHT22;383;48.766;9.270;2023-07-09T08:05:06;29.10;56.00
802;DHT22;383;48.766;9.270;2023-07-09T08:07:33;29.30;55.70
802;DHT22;383;48.766;9.270;2023-07-09T08:10:00;29.40;55.60
802;DHT22;383;48.766;9.270;2023-07-09T08:12:28;29.60;54.40
802;DHT22;383;48.766;9.270;2023-07-09T08:14:54;29.60;54.40
802;DHT22;383;48.766;9.270;2023-07-09T08:17:21;29.80;54.30
802;DHT22;383;48.766;9.270;2023-07-09T08:19:49;29.90;53.10
802;DHT22;383;48.766;9.270;2023-07-09T08:22:16;30.00;53.10
802;DHT22;383;48.766;9.270;2023-07-09T08:24:46;30.10;53.40
802;DHT22;383;48.766;9.270;2023-07-09T08:27:12;30.20;53.50
802;DHT22;383;48.766;9.270;2023-07-09T08:29:40;30.40;52.90
802;DHT22;383;48.766;9.270;2023-07-09T08:32:08;30.50;51.50
802;DHT22;383;48.766;9.270;2023-07-09T08:34:37;30.70;52.40
802;DHT22;383;48.766;9.270;2023-07-09T08:37:04;30.80;51.80
802;DHT22;383;48.766;9.270;2023-07-09T08:39:31;31.00;50.20
802;DHT22;383;48.766;9.270;2023-07-09T08:42:00;31.10;50.40
802;DHT22;383;48.766;9.270;2023-07-09T08:44:56;31.30;49.30
802;DHT22;383;48.766;9.270;2023-07-09T08:47:31;31.40;49.80
802;DHT22;383;48.766;9.270;2023-07-09T08:50:02;31.40;49.40
802;DHT22;383;48.766;9.270;2023-07-09T08:52:35;31.60;48.90
802;DHT22;383;48.766;9.270;2023-07-09T08:55:06;31.60;48.10
802;DHT22;383;48.766;9.270;2023-07-09T08:57:38;31.60;48.60
802;DHT22;383;48.766;9.270;2023-07-09T09:00:13;31.80;48.60
802;DHT22;383;48.766;9.270;2023-07-09T09:02:46;32.00;47.30
802;DHT22;383;48.766;9.270;2023-07-09T09:05:18;32.20;47.70
802;DHT22;383;48.766;9.270;2023-07-09T09:07:51;32.30;47.20
802;DHT22;383;48.766;9.270;2023-07-09T09:10:26;32.40;46.30
802;DHT22;383;48.766;9.270;2023-07-09T09:13:02;32.50;45.90
802;DHT22;383;48.766;9.270;2023-07-09T09:15:32;32.50;45.90
802;DHT22;383;48.766;9.270;2023-07-09T09:18:20;32.60;45.80
802;DHT22;383;48.766;9.270;2023-07-09T09:20:53;32.70;45.00
802;DHT22;383;48.766;9.270;2023-07-09T09:23:22;32.80;44.50
802;DHT22;383;48.766;9.270;2023-07-09T09:25:53;33.00;44.60
802;DHT22;383;48.766;9.270;2023-07-09T09:28:21;33.20;44.30
802;DHT22;383;48.766;9.270;2023-07-09T09:30:52;33.30;44.10
802;DHT22;383;48.766;9.270;2023-07-09T09:33:18;33.40;44.20
802;DHT22;383;48.766;9.270;2023-07-09T09:35:45;33.50;44.20
802;DHT22;383;48.766;9.270;2023-07-09T09:38:17;33.70;43.80
802;DHT22;383;48.766;9.270;2023-07-09T09:40:44;33.70;43.70
802;DHT22;383;48.766;9.270;2023-07-09T09:43:13;33.70;43.10
802;DHT22;383;48.766;9.270;2023-07-09T09:45:42;33.80;42.00
802;DHT22;383;48.766;9.270;2023-07-09T09:48:25;33.90;42.20
802;DHT22;383;48.766;9.270;2023-07-09T09:50:54;34.00;41.40
802;DHT22;383;48.766;9.270;2023-07-09T09:53:25;33.90;40.20
802;DHT22;383;48.766;9.270;2023-07-09T09:55:53;33.90;40.90
802;DHT22;383;48.766;9.270;2023-07-09T09:58:25;34.10;40.60
802;DHT22;383;48.766;9.270;2023-07-09T10:00:55;34.20;40.60
802;DHT22;383;48.766;9.270;2023-07-09T10:03:32;34.30;40.90
802;DHT22;383;48.766;9.270;2023-07-09T10:06:02;34.40;40.00
802;DHT22;383;48.766;9.270;2023-07-09T10:08:40;34.50;40.40
802;DHT22;383;48.766;9.270;2023-07-09T10:11:18;34.60;39.10
802;DHT22;383;48.766;9.270;2023-07-09T10:13:45;34.70;38.90
802;DHT22;383;48.766;9.270;2023-07-09T10:16:19;34.90;39.40
802;DHT22;383;48.766;9.270;2023-07-09T10:18:54;34.90;38.40
802;DHT22;383;48.766;9.270;2023-07-09T10:21:25;35.00;37.40
802;DHT22;383;48.766;9.270;2023-07-09T10:24:07;35.00;37.30
802;DHT22;383;48.766;9.270;2023-07-09T10:26:45;35.00;37.30
802;DHT22;383;48.766;9.270;2023-07-09T10:29:25;35.10;38.50
802;DHT22;383;48.766;9.270;2023-07-09T10:32:04;35.20;36.00
802;DHT22;383;48.766;9.270;2023-07-09T10:34:45;35.20;36.50
802;DHT22;383;48.766;9.270;2023-07-09T10:37:26;35.30;35.90
802;DHT22;383;48.766;9.270;2023-07-09T10:39:57;35.40;36.40
802;DHT22;383;48.766;9.270;2023-07-09T10:42:27;35.30;35.50
802;DHT22;383;48.766;9.270;2023-07-09T10:44:57;35.40;36.80
802;DHT22;383;48.766;9.270;2023-07-09T10:47:30;35.40;35.40
802;DHT22;383;48.766;9.270;2023-07-09T10:50:03;35.50;34.20
802;DHT22;383;48.766;9.270;2023-07-09T10:52:36;35.40;35.20
802;DHT22;383;48.766;9.270;2023-07-09T10:55:05;35.40;34.70
802;DHT22;383;48.766;9.270;2023-07-09T10:57:43;35.50;34.30
802;DHT22;383;48.766;9.270;2023-07-09T11:00:16;35.70;35.70
802;DHT22;383;48.766;9.270;2023-07-09T11:02:44;35.90;35.30
802;DHT22;383;48.766;9.270;2023-07-09T11:05:13;36.00;34.50
802;DHT22;383;48.766;9.270;2023-07-09T11:07:43;36.00;34.30
802;DHT22;383;48.766;9.270;2023-07-09T11:10:19;36.10;34.90
802;DHT22;383;48.766;9.270;2023-07-09T11:12:54;36.20;34.90
802;DHT22;383;48.766;9.270;2023-07-09T11:15:29;36.30;34.90
802;DHT22;383;48.766;9.270;2023-07-09T11:17:58;36.40;35.30
802;DHT22;383;48.766;9.270;2023-07-09T11:20:31;36.40;34.40
802;DHT22;383;48.766;9.270;2023-07-09T11:23:02;36.40;33.90
802;DHT22;383;48.766;9.270;2023-07-09T11:25:39;36.50;33.80
802;DHT22;383;48.766;9.270;2023-07-09T11:28:06;36.60;34.90
802;DHT22;383;48.766;9.270;2023-07-09T11:30:46;36.70;34.30
802;DHT22;383;48.766;9.270;2023-07-09T11:33:18;36.80;33.40
802;DHT22;383;48.766;9.270;2023-07-09T11:35:47;36.90;33.20
802;DHT22;383;48.766;9.270;2023-07-09T11:38:18;36.70;32.60
802;DHT22;383;48.766;9.270;2023-07-09T11:40:49;36.50;32.30
802;DHT22;383;48.766;9.270;2023-07-09T11:43:28;36.60;32.70
802;DHT22;383;48.766;9.270;2023-07-09T11:45:57;36.70;31.20
802;DHT22;383;48.766;9.270;2023-07-09T11:48:27;36.80;29.60
802;DHT22;383;48.766;9.270;2023-07-09T11:50:58;36.90;31.80
802;DHT22;383;48.766;9.270;2023-07-09T11:53:43;37.00;30.30
802;DHT22;383;48.766;9.270;2023-07-09T11:56:18;37.00;29.20
802;DHT22;383;48.766;9.270;2023-07-09T11:58:49;37.10;29.80
802;DHT22;383;48.766;9.270;2023-07-09T12:01:18;37.20;29.60
802;DHT22;383;48.766;9.270;2023-07-09T12:03:46;37.20;28.30
802;DHT22;383;48.766;9.270;2023-07-09T12:06:17;37.10;28.90
802;DHT22;383;48.766;9.270;2023-07-09T12:08:45;37.10;29.10
802;DHT22;383;48.766;9.270;2023-07-09T12:11:20;37.10;28.50
802;DHT22;383;48.766;9.270;2023-07-09T12:13:47;37.10;28.20
802;DHT22;383;48.766;9.270;2023-07-09T12:16:22;37.20;27.90
802;DHT22;383;48.766;9.270;2023-07-09T12:18:49;37.20;29.00
802;DHT22;383;48.766;9.270;2023-07-09T12:21:24;37.30;28.30
802;DHT22;383;48.766;9.270;2023-07-09T12:23:57;37.50;27.90
802;DHT22;383;48.766;9.270;2023-07-09T12:26:24;37.60;28.80
802;DHT22;383;48.766;9.270;2023-07-09T12:28:51;37.50;28.70
802;DHT22;383;48.766;9.270;2023-07-09T12:31:25;37.40;29.30
802;DHT22;383;48.766;9.270;2023-07-09T12:33:54;37.30;30.30
802;DHT22;383;48.766;9.270;2023-07-09T12:36:21;37.30;29.80
802;DHT22;383;48.766;9.270;2023-07-09T12:38:53;37.40;30.30
802;DHT22;383;48.766;9.270;2023-07-09T12:41:23;37.40;29.40
802;DHT22;383;48.766;9.270;2023-07-09T12:43:52;37.40;30.50
802;DHT22;383;48.766;9.270;2023-07-09T12:46:20;37.50;31.40
802;DHT22;383;48.766;9.270;2023-07-09T12:48:48;37.70;29.20
802;DHT22;383;48.766;9.270;2023-07-09T12:51:20;37.80;29.20
802;DHT22;383;48.766;9.270;2023-07-09T12:54:00;38.00;29.00
802;DHT22;383;48.766;9.270;2023-07-09T12:56:27;38.10;28.70
802;DHT22;383;48.766;9.270;2023-07-09T12:58:56;38.10;29.80
802;DHT22;383;48.766;9.270;2023-07-09T13:01:24;38.10;29.70
802;DHT22;383;48.766;9.270;2023-07-09T13:03:55;38.20;30.20
802;DHT22;383;48.766;9.270;2023-07-09T13:06:28;38.00;29.60
802;DHT22;383;48.766;9.270;2023-07-09T13:08:58;37.90;29.70
802;DHT22;383;48.766;9.270;2023-07-09T13:11:33;38.00;29.70
802;DHT22;383;48.766;9.270;2023-07-09T13:14:02;38.10;29.30
802;DHT22;383;48.766;9.270;2023-07-09T13:16:37;38.20;29.10
802;DHT22;383;48.766;9.270;2023-07-09T13:19:04;38.40;28.60
802;DHT22;383;48.766;9.270;2023-07-09T13:21:31;38.50;29.20
802;DHT22;383;48.766;9.270;2023-07-09T13:23:59;38.50;28.50
802;DHT22;383;48.766;9.270;2023-07-09T13:26:26;38.60;28.50
802;DHT22;383;48.766;9.270;2023-07-09T13:28:53;38.70;30.30
802;DHT22;383;48.766;9.270;2023-07-09T13:31:20;38.80;29.30
802;DHT22;383;48.766;9.270;2023-07-09T13:33:50;38.90;29.00
802;DHT22;383;48.766;9.270;2023-07-09T13:36:19;38.80;28.90
802;DHT22;383;48.766;9.270;2023-07-09T13:38:46;38.90;28.90
802;DHT22;383;48.766;9.270;2023-07-09T13:41:16;39.20;28.80
802;DHT22;383;48.766;9.270;2023-07-09T13:43:46;39.30;28.00
802;DHT22;383;48.766;9.270;2023-07-09T13:46:13;39.50;28.60
802;DHT22;383;48.766;9.270;2023-07-09T13:48:42;39.70;28.00
802;DHT22;383;48.766;9.270;2023-07-09T13:51:15;39.90;27.60
802;DHT22;383;48.766;9.270;2023-07-09T13:53:42;39.90;27.00
802;DHT22;383;48.766;9.270;2023-07-09T13:56:09;39.80;27.30
802;DHT22;383;48.766;9.270;2023-07-09T13:58:37;39.90;28.00
802;DHT22;383;48.766;9.270;2023-07-09T14:01:11;40.10;28.20
802;DHT22;383;48.766;9.270;2023-07-09T14:03:38;40.20;27.70
802;DHT22;383;48.766;9.270;2023-07-09T14:06:05;40.30;27.70
802;DHT22;383;48.766;9.270;2023-07-09T14:08:32;40.60;27.30
802;DHT22;383;48.766;9.270;2023-07-09T14:10:59;40.80;26.70
802;DHT22;383;48.766;9.270;2023-07-09T14:13:25;41.00;27.30
802;DHT22;383;48.766;9.270;2023-07-09T14:15:53;41.20;26.30
802;DHT22;383;48.766;9.270;2023-07-09T14:18:22;41.40;26.60
802;DHT22;383;48.766;9.270;2023-07-09T14:20:49;41.50;26.10
802;DHT22;383;48.766;9.270;2023-07-09T14:23:17;41.30;26.60
802;DHT22;383;48.766;9.270;2023-07-09T14:25:44;41.30;27.10
802;DHT22;383;48.766;9.270;2023-07-09T14:28:12;41.20;26.60
802;DHT22;383;48.766;9.270;2023-07-09T14:30:40;41.40;26.90
802;DHT22;383;48.766;9.270;2023-07-09T14:33:12;41.40;27.40
802;DHT22;383;48.766;9.270;2023-07-09T14:35:38;41.40;27.50
802;DHT22;383;48.766;9.270;2023-07-09T14:38:15;41.40;27.30
802;DHT22;383;48.766;9.270;2023-07-09T14:40:42;41.40;27.20
802;DHT22;383;48.766;9.270;2023-07-09T14:43:10;41.20;27.20
802;DHT22;383;48.766;9.270;2023-07-09T14:45:37;41.20;27.90
802;DHT22;383;48.766;9.270;2023-07-09T14:48:10;41.20;27.50
802;DHT22;383;48.766;9.270;2023-07-09T14:50:37;41.30;27.30
802;DHT22;383;48.766;9.270;2023-07-09T14:53:10;41.40;27.80
802;DHT22;383;48.766;9.270;2023-07-09T14:55:38;41.70;28.00
802;DHT22;383;48.766;9.270;2023-07-09T14:58:14;42.00;26.80
802;DHT22;383;48.766;9.270;2023-07-09T15:00:41;42.20;27.10
802;DHT22;383;48.766;9.270;2023-07-09T15:03:11;42.00;27.20
802;DHT22;383;48.766;9.270;2023-07-09T15:05:39;41.90;27.50
802;DHT22;383;48.766;9.270;2023-07-09T15:08:12;41.80;27.50
802;DHT22;383;48.766;9.270;2023-07-09T15:10:40;42.00;27.20
802;DHT22;383;48.766;9.270;2023-07-09T15:13:14;42.10;27.10
802;DHT22;383;48.766;9.270;2023-07-09T15:15:41;42.30;27.50
802;DHT22;383;48.766;9.270;2023-07-09T15:18:11;42.40;26.80
802;DHT22;383;48.766;9.270;2023-07-09T15:20:39;42.40;26.30
802;DHT22;383;48.766;9.270;2023-07-09T15:23:09;42.30;26.70
802;DHT22;383;48.766;9.270;2023-07-09T15:25:37;42.20;26.70
802;DHT22;383;48.766;9.270;2023-07-09T15:28:04;42.30;26.00
802;DHT22;383;48.766;9.270;2023-07-09T15:30:31;42.30;25.90
802;DHT22;383;48.766;9.270;2023-07-09T15:32:59;42.40;25.40
802;DHT22;383;48.766;9.270;2023-07-09T15:35:31;42.20;25.80
802;DHT22;383;48.766;9.270;2023-07-09T15:37:58;42.00;26.40
802;DHT22;383;48.766;9.270;2023-07-09T15:40:27;41.60;25.80
802;DHT22;383;48.766;9.270;2023-07-09T15:42:57;41.00;26.70
802;DHT22;383;48.766;9.270;2023-07-09T15:45:24;40.70;27.60
802;DHT22;383;48.766;9.270;2023-07-09T15:47:52;40.50;27.50
802;DHT22;383;48.766;9.270;2023-07-09T15:50:21;40.20;26.90
802;DHT22;383;48.766;9.270;2023-07-09T15:52:50;40.00;27.70
802;DHT22;383;48.766;9.270;2023-07-09T15:55:19;39.80;28.30
802;DHT22;383;48.766;9.270;2023-07-09T15:57:47;39.80;28.00
802;DHT22;383;48.766;9.270;2023-07-09T16:00:18;39.70;28.40
802;DHT22;383;48.766;9.270;2023-07-09T16:02:45;39.80;28.00
802;DHT22;383;48.766;9.270;2023-07-09T16:05:23;39.80;28.10
802;DHT22;383;48.766;9.270;2023-07-09T16:07:52;39.70;27.70
802;DHT22;383;48.766;9.270;2023-07-09T16:10:20;39.70;27.80
802;DHT22;383;48.766;9.270;2023-07-09T16:12:47;39.70;27.70
802;DHT22;383;48.766;9.270;2023-07-09T16:15:16;39.70;27.90
802;DHT22;383;48.766;9.270;2023-07-09T16:17:44;39.60;27.70
802;DHT22;383;48.766;9.270;2023-07-09T16:20:13;39.50;27.50
802;DHT22;383;48.766;9.270;2023-07-09T16:22:41;39.40;28.30
802;DHT22;383;48.766;9.270;2023-07-09T16:25:14;39.20;28.70
802;DHT22;383;48.766;9.270;2023-07-09T16:27:42;39.10;28.70
802;DHT22;383;48.766;9.270;2023-07-09T16:30:13;39.00;27.80
802;DHT22;383;48.766;9.270;2023-07-09T16:32:40;38.90;28.70
802;DHT22;383;48.766;9.270;2023-07-09T16:35:11;38.70;27.60
802;DHT22;383;48.766;9.270;2023-07-09T16:37:38;38.50;28.20
802;DHT22;383;48.766;9.270;2023-07-09T16:40:10;38.40;28.70
802;DHT22;383;48.766;9.270;2023-07-09T16:42:40;38.30;29.70
802;DHT22;383;48.766;9.270;2023-07-09T16:45:07;38.10;28.70
802;DHT22;383;48.766;9.270;2023-07-09T16:47:34;38.00;29.90